Time;durP1;ratioP1;P1;durP2;ratioP2;P2;SDS_P1;SDS_P2;PMS_P1;PMS_P2;Temp;Humidity;BMP_temperature;BMP_pressure;BME280_temperature;BME280_humidity;BME280_pressure;Samples;Min_cycle;Max_cycle;Signal;HPM_P1;HPM_P2
2022/10/03 00:00:20;;;;;;;;;41.75;33.50;;;;;16.11;68.28;102164.34;5046475;28;46479;-71
2022/10/03 00:03:10;;;;;;;;;37.25;33.00;;;;;16.12;68.28;102166.19;5066068;28;45517;-73
2022/10/03 00:06:13;;;;;;;;;40.75;36.50;;;;;16.14;68.05;102160.84;5070662;28;45602;-70
2022/10/03 00:08:47;;;;;;;;;37.75;33.50;;;;;16.14;68.65;102160.84;5067952;28;45307;-68
2022/10/03 00:11:21;;;;;;;;;35.75;29.00;;;;;16.15;67.98;102162.66;5073773;28;45405;-70
2022/10/03 00:14:11;;;;;;;;;32.25;31.50;;;;;15.91;68.19;102128.78;5081830;28;45434;-68
2022/10/03 00:16:48;;;;;;;;;38.00;31.25;;;;;16.13;68.44;102175.19;5082799;28;45523;-72
2022/10/03 00:19:26;;;;;;;;;34.00;33.25;;;;;16.13;68.09;102175.19;5071440;28;45580;-71
2022/10/03 00:22:00;;;;;;;;;40.75;33.75;;;;;16.12;68.03;102181.44;5074769;28;45437;-69
2022/10/03 00:24:34;;;;;;;;;28.25;27.75;;;;;16.12;68.09;102185.06;5072492;28;45578;-70
2022/10/03 00:27:32;;;;;;;;;26.00;24.25;;;;;16.09;68.84;102176.00;5075884;28;45692;-72
2022/10/03 00:30:19;;;;;;;;;34.00;27.00;;;;;16.09;68.26;102178.69;5071979;28;45519;-71
2022/10/03 00:33:23;;;;;;;;;28.00;23.25;;;;;15.94;68.37;102150.44;5085076;28;45656;-70
2022/10/03 00:36:01;;;;;;;;;23.33;21.67;;;;;16.08;68.29;102172.38;5078402;28;45558;-69
2022/10/03 00:38:57;;;;;;;;;22.33;20.00;;;;;15.86;68.42;102143.03;5083996;28;45038;-70
2022/10/03 00:41:51;;;;;;;;;16.33;15.67;;;;;16.05;68.67;102176.75;5069932;28;45512;-69
2022/10/03 00:44:36;;;;;;;;;16.67;16.00;;;;;16.05;68.50;102190.25;5084323;28;46386;-70
2022/10/03 00:47:28;;;;;;;;;15.33;14.00;;;;;16.02;68.46;102188.41;5074434;28;45486;-70
2022/10/03 00:49:59;;;;;;;;;15.67;12.67;;;;;15.98;68.80;102184.69;5084590;28;45016;-72
2022/10/03 00:52:52;;;;;;;;;10.00;10.00;;;;;15.99;68.74;102194.59;5086484;28;45527;-71
2022/10/03 00:55:25;;;;;;;;;12.00;11.00;;;;;16.01;68.84;102194.66;5087514;28;45500;-69
2022/10/03 00:58:02;;;;;;;;;15.00;11.67;;;;;16.01;68.73;102182.06;5062302;28;45595;-70
2022/10/03 01:00:30;;;;;;;;;18.67;16.33;;;;;16.03;68.78;102185.72;5087966;28;45177;-69
2022/10/03 01:03:23;;;;;;;;;9.00;9.00;;;;;16.03;68.61;102182.13;5087227;28;45161;-71
2022/10/03 01:06:18;;;;;;;;;14.33;12.33;;;;;16.02;68.38;102178.53;5086321;28;45468;-68
2022/10/03 01:08:58;;;;;;;;;21.67;15.33;;;;;16.02;68.20;102185.69;5074809;28;45302;-73
2022/10/03 01:11:39;;;;;;;;;14.00;12.67;;;;;16.01;68.24;102187.47;5086551;28;45167;-69
2022/10/03 01:14:24;;;;;;;;;13.67;13.67;;;;;16.02;68.10;102192.00;5083016;28;45299;-70
2022/10/03 01:16:55;;;;;;;;;19.67;17.33;;;;;16.02;68.61;102175.81;5085244;28;46315;-73
2022/10/03 01:20:06;;;;;;;;;15.00;14.00;;;;;16.02;68.62;102178.53;5061063;28;45514;-69
2022/10/03 01:22:40;;;;;;;;;21.00;14.33;;;;;16.03;68.58;102190.19;5079127;28;45599;-69
2022/10/03 01:25:26;;;;;;;;;13.67;13.00;;;;;16.01;68.58;102191.94;5085781;28;45258;-71
2022/10/03 01:31:09;;;;;;;;;14.00;14.00;;;;;16.03;68.71;102187.50;5073700;28;46407;-69
2022/10/03 01:33:43;;;;;;;;;21.33;16.00;;;;;15.97;68.49;102181.94;5054171;28;45388;-71
2022/10/03 01:36:28;;;;;;;;;16.67;13.67;;;;;16.04;68.23;102194.75;5076476;28;45155;-70
2022/10/03 01:39:10;;;;;;;;;14.33;13.33;;;;;15.98;68.36;102186.47;5066740;28;45754;-70
2022/10/03 01:41:58;;;;;;;;;15.33;11.67;;;;;15.86;68.40;102151.13;5070919;28;45555;-69
2022/10/03 01:44:58;;;;;;;;;15.67;13.00;;;;;16.02;68.67;102183.91;5069719;28;45600;-72
2022/10/03 01:47:35;;;;;;;;;15.33;12.67;;;;;16.02;68.69;102183.00;4980974;28;45665;-70
2022/10/03 01:50:18;;;;;;;;;18.00;15.67;;;;;16.01;68.41;102179.38;5072973;27;46020;-70
2022/10/03 01:52:48;;;;;;;;;14.33;13.67;;;;;15.95;68.39;102163.03;5072564;28;44871;-69
2022/10/03 01:55:29;;;;;;;;;18.67;18.33;;;;;16.00;68.80;102172.19;5071339;28;45606;-70
2022/10/03 01:58:24;;;;;;;;;17.33;14.33;;;;;15.96;68.37;102170.25;5071045;28;45706;-69
2022/10/03 02:01:29;;;;;;;;;16.00;13.33;;;;;16.01;68.83;102173.09;5069172;28;45571;-70
2022/10/03 02:04:05;;;;;;;;;16.00;14.33;;;;;15.96;68.49;102167.56;5070187;28;45365;-69
2022/10/03 02:06:48;;;;;;;;;23.00;19.00;;;;;16.01;68.86;102179.38;5073611;28;45377;-70
2022/10/03 02:09:28;;;;;;;;;20.33;18.33;;;;;16.00;68.34;102172.19;5070110;28;45408;-70
2022/10/03 02:12:07;;;;;;;;;20.33;16.33;;;;;15.65;68.83;102106.50;5066633;28;46262;-71
2022/10/03 02:14:52;;;;;;;;;25.33;19.67;;;;;15.99;68.36;102175.72;5072521;28;45363;-69
2022/10/03 02:17:29;;;;;;;;;21.33;19.33;;;;;15.95;68.42;102171.13;5069279;28;45483;-72
2022/10/03 02:20:13;;;;;;;;;23.67;19.00;;;;;15.97;68.79;102166.69;5071400;28;45570;-72
2022/10/03 02:22:44;;;;;;;;;15.67;15.67;;;;;15.97;68.56;102165.75;5070012;28;46068;-70
2022/10/03 02:25:30;;;;;;;;;20.00;19.00;;;;;15.96;68.37;102162.16;5071326;28;45568;-70
2022/10/03 02:28:54;;;;;;;;;17.33;14.67;;;;;15.95;68.28;102170.22;5072794;28;45679;-71
2022/10/03 02:31:37;;;;;;;;;21.00;15.33;;;;;15.95;68.38;102170.22;5008317;28;45513;-69
2022/10/03 02:34:25;;;;;;;;;14.33;14.33;;;;;15.77;68.51;102144.59;4992825;28;47690;-69
2022/10/03 02:36:56;;;;;;;;;21.00;18.33;;;;;15.92;68.72;102167.44;5064028;28;45346;-70
2022/10/03 02:39:52;;;;;;;;;21.50;19.00;;;;;15.94;68.51;102171.09;5071340;28;45421;-69
2022/10/03 02:42:36;;;;;;;;;23.00;20.33;;;;;15.94;68.63;102173.81;5049397;28;45718;-70
2022/10/03 02:45:29;;;;;;;;;28.00;24.50;;;;;15.92;68.77;102167.44;5072109;28;46151;-69
2022/10/03 02:48:37;;;;;;;;;20.50;19.75;;;;;15.91;68.41;102169.22;5069194;28;45618;-69
2022/10/03 02:51:19;;;;;;;;;21.00;18.00;;;;;15.91;68.52;102173.72;5063638;28;45425;-69
2022/10/03 02:53:47;;;;;;;;;25.00;22.25;;;;;15.91;68.19;102171.00;5072515;28;45488;-71
2022/10/03 02:56:30;;;;;;;;;24.00;21.00;;;;;15.90;68.44;102167.38;5071331;28;45351;-70
2022/10/03 02:59:33;;;;;;;;;23.33;16.33;;;;;15.89;69.08;102172.72;5070032;28;45532;-71
2022/10/03 03:02:02;;;;;;;;;20.67;16.00;;;;;15.85;68.98;102171.75;5070065;28;45681;-70
2022/10/03 03:04:36;;;;;;;;;23.33;19.00;;;;;15.86;68.67;102161.91;5076344;28;45355;-70
2022/10/03 03:07:35;;;;;;;;;17.00;12.67;;;;;15.86;68.58;102169.97;5069489;28;45540;-70
2022/10/03 03:10:38;;;;;;;;;20.33;16.00;;;;;15.87;69.02;102161.91;5074930;28;45571;-71
2022/10/03 03:13:25;;;;;;;;;18.33;16.67;;;;;15.90;68.90;102163.78;5072942;28;45536;-70
2022/10/03 03:16:28;;;;;;;;;19.33;17.67;;;;;15.82;69.22;102171.66;5074728;28;45517;-71
2022/10/03 03:19:15;;;;;;;;;15.67;15.00;;;;;15.81;68.78;102172.53;5049257;28;47272;-69
2022/10/03 03:21:47;;;;;;;;;20.50;16.50;;;;;15.63;69.23;102144.16;5055640;28;45454;-70
2022/10/03 03:24:31;;;;;;;;;16.00;14.67;;;;;15.79;69.34;102167.09;5073226;28;45614;-70
2022/10/03 03:27:30;;;;;;;;;17.67;14.67;;;;;15.58;69.18;102140.44;5074836;28;45396;-70
2022/10/03 03:30:21;;;;;;;;;11.00;9.33;;;;;15.75;69.36;102161.56;5057951;28;46433;-71
2022/10/03 03:32:49;;;;;;;;;12.67;12.67;;;;;15.79;68.80;102169.81;5072005;28;45528;-70
2022/10/03 03:35:23;;;;;;;;;16.67;13.67;;;;;15.63;69.23;102141.47;5073843;28;45651;-70
2022/10/03 03:37:54;;;;;;;;;13.67;13.67;;;;;15.79;68.92;102179.69;5075068;28;45511;-70
2022/10/03 03:40:51;;;;;;;;;19.00;17.00;;;;;15.76;69.23;102169.72;5071622;28;46216;-69
2022/10/03 03:43:38;;;;;;;;;17.00;14.67;;;;;15.74;68.96;102171.44;5071815;28;45757;-69
2022/10/03 03:46:22;;;;;;;;;20.67;17.67;;;;;15.65;69.24;102160.38;5072841;28;45657;-70
2022/10/03 03:49:08;;;;;;;;;16.00;14.33;;;;;15.74;69.32;102173.19;5078559;27;45798;-68
2022/10/03 03:51:52;;;;;;;;;15.33;12.00;;;;;15.75;69.13;102175.03;5094118;27;46194;-70
2022/10/03 03:54:29;;;;;;;;;13.67;12.67;;;;;15.72;69.55;102180.31;5092048;27;45431;-70
2022/10/03 03:57:36;;;;;;;;;15.33;12.33;;;;;15.70;68.98;102176.69;5092991;27;45488;-70
2022/10/03 04:00:04;;;;;;;;;14.67;11.00;;;;;15.68;69.38;102173.94;5088622;27;46100;-75
2022/10/03 04:03:06;;;;;;;;;15.67;12.00;;;;;15.68;69.04;102178.44;5094593;27;46218;-68
2022/10/03 04:05:47;;;;;;;;;11.67;11.67;;;;;15.62;69.53;102176.44;5091778;27;45454;-73
2022/10/03 04:08:33;;;;;;;;;26.00;16.33;;;;;15.62;69.44;102176.44;5093048;27;45365;-69
2022/10/03 04:11:23;;;;;;;;;18.00;14.67;;;;;15.63;69.26;102173.81;5088350;27;45702;-70
2022/10/03 04:13:51;;;;;;;;;15.33;13.33;;;;;15.62;69.71;102174.69;5089035;27;46298;-70
2022/10/03 04:18:56;;;;;;;;;18.33;15.00;;;;;15.60;69.30;102172.81;5093899;27;45415;-71
2022/10/03 04:19:38;;;;;;;;;16.00;13.00;;;;;15.58;69.51;102175.47;5092668;27;45610;-68
2022/10/03 04:22:19;;;;;;;;;16.33;14.33;;;;;15.57;69.45;102172.72;5076731;27;45454;-69
2022/10/03 04:25:09;;;;;;;;;23.33;21.67;;;;;15.53;69.71;102168.13;5093445;27;46339;-72
2022/10/03 04:28:25;;;;;;;;;21.33;17.33;;;;;15.56;69.38;102176.28;5092224;27;45649;-69
2022/10/03 04:31:08;;;;;;;;;16.00;14.67;;;;;14.60;69.87;102014.69;5074437;27;45534;-71
2022/10/03 04:33:59;;;;;;;;;23.75;17.50;;;;;15.32;69.51;102142.38;5093583;27;45313;-76
2022/10/03 04:36:50;;;;;;;;;19.33;14.33;;;;;15.36;70.05;102179.31;5094421;27;45533;-72
2022/10/03 04:39:36;;;;;;;;;15.33;15.00;;;;;15.30;70.79;102168.34;5089834;27;45415;-69
2022/10/03 04:42:39;;;;;;;;;14.75;13.25;;;;;15.24;70.66;102155.59;5094234;27;45543;-70
2022/10/03 04:45:27;;;;;;;;;14.67;12.67;;;;;15.13;70.62;102138.25;5092605;27;45689;-71
2022/10/03 04:48:08;;;;;;;;;12.67;12.67;;;;;15.33;70.56;102171.16;5092839;27;45451;-70
2022/10/03 04:50:33;;;;;;;;;13.67;11.33;;;;;15.32;70.58;102177.38;5071752;27;45466;-70
2022/10/03 04:53:22;;;;;;;;;12.00;12.00;;;;;15.27;70.81;102173.66;5073457;28;45517;-71
2022/10/03 04:56:41;;;;;;;;;13.33;12.33;;;;;15.23;70.67;102179.81;5070549;27;46624;-69
2022/10/03 04:59:37;;;;;;;;;13.33;9.33;;;;;15.19;70.84;102184.19;4967872;28;46430;-70
2022/10/03 05:02:28;;;;;;;;;15.67;11.33;;;;;15.09;70.51;102163.22;5046835;28;45541;-71
2022/10/03 05:05:18;;;;;;;;;10.67;9.00;;;;;15.27;70.42;102187.09;5053290;28;45526;-69
2022/10/03 05:07:52;;;;;;;;;9.00;8.33;;;;;14.82;70.56;102128.31;5069530;28;45481;-70
2022/10/03 05:10:17;;;;;;;;;16.00;11.67;;;;;15.18;71.28;102179.69;5069692;28;46389;-70
2022/10/03 05:13:11;;;;;;;;;13.00;10.00;;;;;15.02;70.75;102150.47;5071628;28;48464;-72
2022/10/03 05:16:00;;;;;;;;;12.00;11.00;;;;;15.18;71.26;102160.84;5071505;28;45417;-72
2022/10/03 05:18:46;;;;;;;;;15.33;13.33;;;;;15.36;70.68;102183.78;5071909;28;45682;-71
2022/10/03 05:21:38;;;;;;;;;12.67;11.00;;;;;15.37;70.40;102189.19;5068537;28;46435;-69
2022/10/03 05:24:30;;;;;;;;;29.50;24.50;;;;;15.37;70.43;102186.50;5072238;28;45405;-71
2022/10/03 05:27:02;;;;;;;;;14.33;13.00;;;;;15.40;69.86;102185.69;5069066;28;45513;-69
2022/10/03 05:29:37;;;;;;;;;13.33;12.67;;;;;15.26;70.70;102193.34;5068809;27;45539;-68
2022/10/03 05:32:21;;;;;;;;;11.33;9.67;;;;;14.52;70.30;102068.19;5068857;27;47009;-70
2022/10/03 05:35:10;;;;;;;;;13.33;12.33;;;;;15.18;70.28;102195.84;5089707;28;45153;-76
2022/10/03 05:37:57;;;;;;;;;12.67;9.67;;;;;15.08;70.45;102197.31;5073990;27;45599;-70
2022/10/03 05:40:25;;;;;;;;;10.00;9.00;;;;;15.04;71.17;102194.47;5077677;27;45382;-73
2022/10/03 05:42:59;;;;;;;;;11.67;11.33;;;;;15.12;70.55;102201.03;5072662;28;46183;-76
2022/10/03 05:45:29;;;;;;;;;7.67;7.67;;;;;15.15;70.11;102203.81;5078442;27;45548;-69
2022/10/03 05:48:22;;;;;;;;;12.33;10.33;;;;;15.14;70.09;102209.13;5090668;27;45138;-71
2022/10/03 05:51:00;;;;;;;;;15.33;10.33;;;;;15.10;69.96;102211.72;5087491;28;45186;-69
2022/10/03 05:53:56;;;;;;;;;17.33;15.67;;;;;15.11;69.99;102200.13;5076857;28;46078;-70
2022/10/03 05:56:57;;;;;;;;;11.33;10.67;;;;;14.99;70.00;102191.63;5085967;28;45297;-74
2022/10/03 05:59:42;;;;;;;;;10.67;10.67;;;;;14.99;70.09;102197.03;5067887;28;45123;-72
2022/10/03 06:02:45;;;;;;;;;10.00;9.67;;;;;14.93;70.38;102194.13;5076257;28;45362;-69
2022/10/03 06:05:40;;;;;;;;;14.00;9.00;;;;;14.85;70.16;102188.53;5086053;28;45451;-70
2022/10/03 06:08:34;;;;;;;;;14.33;12.67;;;;;14.85;70.09;102183.16;5086398;28;45421;-70
2022/10/03 06:11:30;;;;;;;;;13.00;11.67;;;;;14.77;70.50;102181.97;5068026;28;45469;-71
2022/10/03 06:14:23;;;;;;;;;12.33;10.00;;;;;14.81;70.57;102169.53;5080230;28;45466;-71
2022/10/03 06:17:21;;;;;;;;;8.33;8.33;;;;;14.81;70.37;102165.06;5053484;28;48099;-68
2022/10/03 06:19:51;;;;;;;;;23.00;16.00;;;;;14.95;70.73;102187.03;5071636;28;45601;-70
2022/10/03 06:22:22;;;;;;;;;15.00;11.67;;;;;14.96;70.12;102185.25;5070390;28;45780;-72
2022/10/03 06:25:20;;;;;;;;;16.00;10.00;;;;;14.90;70.11;102189.59;5077451;27;45412;-72
2022/10/03 06:28:07;;;;;;;;;31.75;25.75;;;;;14.90;69.53;102194.06;5058207;28;46279;-72
2022/10/03 06:31:00;;;;;;;;;15.67;10.00;;;;;14.85;69.08;102199.28;5072612;28;45447;-71
2022/10/03 06:34:11;;;;;;;;;10.00;9.00;;;;;14.80;69.12;102194.59;5084233;27;45484;-71
2022/10/03 06:36:39;;;;;;;;;8.67;8.67;;;;;14.80;68.82;102197.28;5062541;28;45412;-76
2022/10/03 06:39:36;;;;;;;;;11.67;9.67;;;;;14.69;68.35;102194.28;5078900;28;45350;-76
2022/10/03 06:42:25;;;;;;;;;11.33;10.00;;;;;14.65;68.68;102197.72;5068604;28;45518;-75
2022/10/03 06:45:28;;;;;;;;;10.33;10.00;;;;;14.56;68.50;102214.44;5069692;28;45638;-76
2022/10/03 06:48:21;;;;;;;;;16.00;13.67;;;;;14.49;69.04;102212.41;5066812;27;45543;-73
2022/10/03 06:51:24;;;;;;;;;8.00;8.00;;;;;14.46;68.67;102210.50;5069198;28;45424;-72
2022/10/03 06:54:38;;;;;;;;;11.67;8.33;;;;;14.48;68.67;102207.88;5047818;28;46478;-78
2022/10/03 06:57:12;;;;;;;;;14.00;8.00;;;;;14.50;68.85;102208.84;5073595;28;45547;-76
2022/10/03 06:59:44;;;;;;;;;6.00;6.00;;;;;14.43;68.85;102217.56;5074503;28;45513;-74
2022/10/03 07:02:47;;;;;;;;;9.00;6.67;;;;;14.38;68.90;102229.06;5073459;27;51994;-71
2022/10/03 07:05:44;;;;;;;;;6.33;4.67;;;;;14.37;68.84;102235.31;5074973;27;45561;-75
2022/10/03 07:08:14;;;;;;;;;10.67;8.00;;;;;14.44;69.03;102236.44;5067346;27;45628;-72
2022/10/03 07:10:54;;;;;;;;;10.33;6.67;;;;;14.33;68.95;102241.44;5075144;28;45526;-75
2022/10/03 07:13:58;;;;;;;;;16.00;12.00;;;;;14.29;69.49;102235.94;5074815;28;45858;-75
2022/10/03 07:16:32;;;;;;;;;15.33;12.00;;;;;14.32;69.97;102236.00;5045341;28;45569;-72
2022/10/03 07:19:11;;;;;;;;;9.67;8.33;;;;;14.25;70.42;102242.03;5079478;28;44792;-75
2022/10/03 07:22:01;;;;;;;;;10.00;9.00;;;;;14.31;69.74;102235.09;5077363;28;45437;-77
2022/10/03 07:25:04;;;;;;;;;13.67;11.00;;;;;14.33;69.88;102230.69;5080627;27;47391;-74
2022/10/03 07:27:51;;;;;;;;;9.00;7.33;;;;;14.40;70.22;102231.81;5068308;28;45679;-74
2022/10/03 07:30:23;;;;;;;;;13.33;11.33;;;;;14.42;70.08;102234.56;5070284;28;45523;-74
2022/10/03 07:33:24;;;;;;;;;9.67;8.67;;;;;14.32;69.88;102219.88;5077634;27;45474;-75
2022/10/03 07:39:13;;;;;;;;;12.00;11.00;;;;;14.49;69.23;102244.69;5074191;27;45572;-74
2022/10/03 07:41:50;;;;;;;;;9.00;9.00;;;;;14.62;69.73;102246.97;5068111;28;45445;-72
2022/10/03 07:44:49;;;;;;;;;7.67;7.00;;;;;14.70;68.81;102231.06;5072323;28;45466;-73
2022/10/03 07:47:33;;;;;;;;;14.00;12.00;;;;;14.61;69.10;102246.91;5068623;28;46026;-70
2022/10/03 07:50:17;;;;;;;;;13.67;11.00;;;;;14.63;68.84;102248.75;5052822;28;45387;-72
2022/10/03 07:52:56;;;;;;;;;10.00;10.00;;;;;14.56;68.65;102244.91;5071435;28;45780;-71
2022/10/03 07:55:43;;;;;;;;;13.67;9.67;;;;;14.60;68.39;102250.44;5069759;28;45496;-72
2022/10/03 07:58:27;;;;;;;;;9.67;9.67;;;;;14.60;68.77;102258.50;5069972;28;45537;-69
2022/10/03 08:01:11;;;;;;;;;11.00;9.67;;;;;14.61;68.57;102261.25;5074286;28;45641;-73
2022/10/03 08:03:55;;;;;;;;;16.33;12.00;;;;;14.63;68.78;102266.69;5056021;28;45777;-74
2022/10/03 08:06:44;;;;;;;;;16.00;14.00;;;;;14.60;68.73;102263.88;5074276;28;45608;-74
2022/10/03 08:09:28;;;;;;;;;14.00;9.00;;;;;14.66;68.27;102258.72;5081902;28;45367;-73
2022/10/03 08:12:26;;;;;;;;;18.33;14.00;;;;;14.65;68.28;102260.50;5081406;28;45497;-71
2022/10/03 08:14:52;;;;;;;;;17.67;12.00;;;;;14.42;68.26;102221.09;5074572;28;45556;-74
2022/10/03 08:17:52;;;;;;;;;20.33;14.33;;;;;14.63;69.14;102243.38;5072425;28;45559;-70
2022/10/03 08:20:39;;;;;;;;;18.00;14.75;;;;;14.83;68.20;102259.28;5083291;28;46034;-75
2022/10/03 08:23:36;;;;;;;;;13.67;10.00;;;;;14.58;67.90;102218.06;5083284;28;44926;-72
2022/10/03 08:26:12;;;;;;;;;14.00;11.00;;;;;14.37;68.37;102180.66;5089480;28;45072;-75
2022/10/03 08:28:46;;;;;;;;;12.33;10.00;;;;;14.89;68.10;102259.50;5090080;28;45202;-79
2022/10/03 08:31:43;;;;;;;;;13.00;11.33;;;;;15.00;67.39;102263.47;5091498;28;45610;-79
2022/10/03 08:34:42;;;;;;;;;10.67;9.00;;;;;14.96;67.10;102258.81;5084360;28;45331;-78
2022/10/03 08:37:35;;;;;;;;;10.00;8.67;;;;;15.02;67.37;102258.13;5087738;28;45142;-76
2022/10/03 08:40:35;;;;;;;;;11.00;11.00;;;;;14.98;67.05;102249.03;5091228;28;45182;-76
2022/10/03 08:43:33;;;;;;;;;14.50;11.25;;;;;15.13;67.29;102248.63;5080919;28;46159;-78
2022/10/03 08:46:36;;;;;;;;;12.00;12.00;;;;;15.22;66.58;102256.97;5081141;28;45484;-76
2022/10/03 08:49:33;;;;;;;;;15.00;12.00;;;;;15.16;66.75;102242.41;5080822;28;45536;-76
2022/10/03 08:52:42;;;;;;;;;18.00;15.50;;;;;15.32;66.62;102252.78;5085788;28;45370;-76
2022/10/03 08:55:22;;;;;;;;;16.00;14.33;;;;;15.39;66.35;102249.44;5089025;28;46616;-77
2022/10/03 08:58:25;;;;;;;;;19.67;12.67;;;;;15.48;65.65;102251.50;5087944;28;45152;-80
2022/10/03 09:01:09;;;;;;;;;15.33;15.33;;;;;15.56;65.79;102259.78;5085567;28;45002;-73
2022/10/03 09:03:53;;;;;;;;;10.33;9.67;;;;;15.64;65.15;102255.53;5071873;28;45480;-75
2022/10/03 09:06:36;;;;;;;;;14.33;13.00;;;;;15.64;63.99;102251.09;5068448;28;45516;-77
2022/10/03 09:09:40;;;;;;;;;17.00;14.00;;;;;15.53;65.12;102260.63;5071058;28;45600;-74
2022/10/03 09:12:18;;;;;;;;;15.00;10.67;;;;;15.50;65.32;102260.53;5070647;28;45510;-77
2022/10/03 09:15:34;;;;;;;;;16.00;14.00;;;;;15.61;65.35;102274.34;5071375;28;46342;-78
2022/10/03 09:18:37;;;;;;;;;16.00;14.67;;;;;15.70;64.82;102284.47;5045110;28;46812;-72
2022/10/03 09:21:33;;;;;;;;;13.67;12.00;;;;;15.79;64.11;102292.88;5068862;28;45528;-73
2022/10/03 09:24:29;;;;;;;;;21.25;16.75;;;;;15.87;64.03;102285.88;5074036;28;45532;-72
2022/10/03 09:27:35;;;;;;;;;15.00;12.33;;;;;15.84;63.81;102283.13;5078387;27;45559;-79
2022/10/03 09:30:09;;;;;;;;;21.00;19.67;;;;;15.78;64.08;102296.41;5072576;28;45863;-78
2022/10/03 09:33:12;;;;;;;;;17.33;14.33;;;;;15.84;64.28;102297.50;5078686;28;45531;-77
2022/10/03 09:36:03;;;;;;;;;13.33;13.33;;;;;15.78;63.55;102283.84;5063470;28;45431;-77
2022/10/03 09:39:00;;;;;;;;;15.67;13.33;;;;;15.17;63.66;102172.47;5081683;28;45365;-78
2022/10/03 09:41:51;;;;;;;;;13.00;11.67;;;;;15.89;63.67;102294.03;5082778;27;45545;-70
2022/10/03 09:44:34;;;;;;;;;14.67;14.67;;;;;15.93;63.37;102291.47;5073562;28;45557;-71
2022/10/03 09:47:27;;;;;;;;;20.00;14.67;;;;;15.92;63.38;102289.66;5084799;27;45434;-74
2022/10/03 09:50:20;;;;;;;;;16.50;15.00;;;;;15.75;64.09;102291.81;5095784;27;45466;-68
2022/10/03 09:53:08;;;;;;;;;16.67;15.67;;;;;15.83;63.43;102278.59;5098089;27;46250;-78
2022/10/03 09:56:10;;;;;;;;;23.75;18.50;;;;;15.91;63.52;102284.22;5091621;27;45491;-77
2022/10/03 09:58:49;;;;;;;;;14.00;13.67;;;;;15.86;64.21;102278.69;5092366;27;45393;-75
2022/10/03 10:01:41;;;;;;;;;22.67;14.00;;;;;15.85;63.44;102282.25;5097520;27;45425;-76
2022/10/03 10:04:28;;;;;;;;;18.33;16.00;;;;;15.90;63.62;102277.91;5093636;27;45415;-76
2022/10/03 10:07:14;;;;;;;;;38.75;32.75;;;;;15.90;63.48;102268.91;5086992;27;45691;-73
2022/10/03 10:09:53;;;;;;;;;15.00;15.00;;;;;15.74;63.66;102227.06;5090883;27;45383;-76
2022/10/03 10:12:32;;;;;;;;;17.67;17.67;;;;;15.93;63.43;102259.13;5093910;27;45324;-72
2022/10/03 10:15:21;;;;;;;;;20.33;16.33;;;;;15.98;64.01;102268.25;5076574;27;46558;-75
2022/10/03 10:18:27;;;;;;;;;21.25;17.50;;;;;15.91;63.87;102224.94;5088758;27;45553;-76
2022/10/03 10:21:17;;;;;;;;;23.33;19.00;;;;;16.07;62.94;102247.81;5033363;27;45549;-77
2022/10/03 10:23:57;;;;;;;;;22.33;17.67;;;;;15.82;62.94;102220.16;5087681;27;45346;-76
2022/10/03 10:26:28;;;;;;;;;24.75;18.75;;;;;16.03;62.77;102268.38;5090865;27;46277;-76
2022/10/03 10:29:21;;;;;;;;;16.00;15.00;;;;;16.06;63.09;102267.56;5093554;27;45467;-74
2022/10/03 10:32:05;;;;;;;;;15.33;13.33;;;;;16.06;63.02;102273.88;5093290;27;45554;-75
2022/10/03 10:34:52;;;;;;;;;20.67;15.67;;;;;15.77;63.09;102211.97;5094115;27;45306;-76
2022/10/03 10:37:45;;;;;;;;;17.33;15.67;;;;;16.05;62.58;102269.34;5093558;27;45474;-76
2022/10/03 10:40:29;;;;;;;;;22.67;17.67;;;;;16.08;63.31;102265.81;5093254;27;45291;-76
2022/10/03 10:43:12;;;;;;;;;21.00;16.00;;;;;16.15;62.75;102260.66;5093150;27;45322;-76
2022/10/03 10:45:48;;;;;;;;;22.00;16.00;;;;;16.19;62.66;102257.16;5091677;27;45587;-74
2022/10/03 10:48:51;;;;;;;;;19.33;16.00;;;;;16.17;63.00;102241.81;5093060;27;45580;-74
2022/10/03 10:51:47;;;;;;;;;23.75;19.25;;;;;16.27;62.59;102241.19;5086991;27;45286;-72
2022/10/03 10:55:02;;;;;;;;;26.00;17.75;;;;;15.97;62.33;102207.13;5090416;27;45527;-73
2022/10/03 10:57:53;;;;;;;;;21.25;20.00;;;;;16.29;62.58;102250.22;5090153;27;45561;-76
2022/10/03 11:00:43;;;;;;;;;21.50;17.25;;;;;14.73;62.10;101964.81;5086459;27;46250;-78
2022/10/03 11:03:47;;;;;;;;;18.33;17.67;;;;;16.43;61.31;102258.69;5092729;27;45396;-76
2022/10/03 11:06:51;;;;;;;;;16.33;16.00;;;;;16.48;61.79;102262.44;5092814;27;45572;-73
2022/10/03 11:09:45;;;;;;;;;22.00;16.00;;;;;16.44;61.07;102247.03;5093648;27;45722;-76
2022/10/03 11:12:38;;;;;;;;;21.33;19.33;;;;;16.54;61.17;102264.38;5089243;27;46226;-78
2022/10/03 11:15:06;;;;;;;;;16.67;16.67;;;;;16.51;60.63;102259.78;5092965;27;45586;-77
2022/10/03 11:17:37;;;;;;;;;17.33;16.67;;;;;16.56;60.88;102257.22;5090311;27;45596;-79
2022/10/03 11:20:40;;;;;;;;;47.00;36.50;;;;;16.57;60.70;102254.56;5094765;27;45627;-74
2022/10/03 11:23:20;;;;;;;;;23.33;18.33;;;;;16.62;60.48;102252.00;5095162;27;46337;-75
2022/10/03 11:26:10;;;;;;;;;24.67;20.67;;;;;16.60;60.49;102256.44;5096366;27;45494;-76
2022/10/03 11:28:39;;;;;;;;;13.00;11.33;;;;;16.52;60.32;102253.53;5094816;27;45473;-74
2022/10/03 11:31:22;;;;;;;;;15.67;15.67;;;;;16.59;60.09;102247.41;5095556;27;45556;-75
2022/10/03 11:34:03;;;;;;;;;22.00;19.33;;;;;16.63;60.30;102251.13;5095939;27;46463;-75
2022/10/03 11:36:47;;;;;;;;;15.67;15.67;;;;;16.69;59.57;102240.47;5093798;27;45388;-77
2022/10/03 11:39:21;;;;;;;;;18.00;17.33;;;;;16.76;59.72;102239.75;5096107;27;45648;-74
2022/10/03 11:41:57;;;;;;;;;74.50;56.50;;;;;16.77;59.64;102238.88;5101721;27;45419;-75
2022/10/03 11:44:31;;;;;;;;;18.00;15.67;;;;;16.37;59.32;102173.13;5098121;27;45882;-74
2022/10/03 11:47:14;;;;;;;;;14.33;13.67;;;;;16.71;59.25;102233.34;5099475;27;45416;-75
2022/10/03 11:50:21;;;;;;;;;19.33;16.67;;;;;16.70;59.62;102219.81;5073721;27;45470;-76
2022/10/03 11:52:55;;;;;;;;;18.00;15.33;;;;;16.65;59.49;102232.28;5074880;28;45416;-73
2022/10/03 11:55:38;;;;;;;;;15.33;13.33;;;;;16.67;59.45;102234.13;5053498;28;46174;-77
2022/10/03 11:58:37;;;;;;;;;19.33;16.00;;;;;16.74;59.62;102225.28;5070488;28;45480;-76
2022/10/03 12:01:34;;;;;;;;;20.00;17.33;;;;;16.89;59.05;102223.88;5075136;28;45518;-75
2022/10/03 12:04:21;;;;;;;;;17.00;11.33;;;;;16.90;58.70;102218.53;5073313;28;45543;-75
2022/10/03 12:10:05;;;;;;;;;17.33;16.00;;;;;17.05;58.71;102225.19;5075080;28;45390;-76
2022/10/03 12:12:42;;;;;;;;;15.67;13.00;;;;;16.75;58.57;102170.47;5075349;28;45359;-73
2022/10/03 12:15:33;;;;;;;;;13.67;12.67;;;;;17.22;57.71;102233.66;5050771;28;45618;-75
2022/10/03 12:18:51;;;;;;;;;19.67;13.33;;;;;17.24;58.13;102219.31;5071769;28;45421;-73
2022/10/03 12:21:26;;;;;;;;;15.33;12.00;;;;;17.09;57.50;102192.88;5032677;28;45401;-74
2022/10/03 12:24:24;;;;;;;;;14.67;11.67;;;;;17.35;57.47;102216.84;5075273;28;45592;-76
2022/10/03 12:27:10;;;;;;;;;17.33;12.67;;;;;17.41;57.34;102195.38;5074685;28;45484;-74
2022/10/03 12:29:43;;;;;;;;;19.33;13.67;;;;;17.15;57.07;102121.88;5074639;28;45359;-76
2022/10/03 12:32:15;;;;;;;;;12.00;9.67;;;;;17.79;56.25;102211.47;5057149;28;45470;-74
2022/10/03 12:35:15;;;;;;;;;11.67;11.00;;;;;17.82;55.76;102207.94;5072642;28;45497;-73
2022/10/03 12:37:54;;;;;;;;;16.00;12.33;;;;;17.69;55.63;102188.75;5071514;28;45672;-72
2022/10/03 12:40:37;;;;;;;;;14.33;12.33;;;;;17.60;55.41;102174.13;5074420;28;46388;-72
2022/10/03 12:43:40;;;;;;;;;12.67;10.33;;;;;17.77;56.00;102199.72;5074952;28;45558;-74
2022/10/03 12:46:14;;;;;;;;;11.00;10.67;;;;;17.54;55.05;102158.72;5074282;28;45388;-73
2022/10/03 12:48:54;;;;;;;;;18.33;11.67;;;;;17.75;55.46;102190.69;5082392;27;45447;-76
2022/10/03 12:51:50;;;;;;;;;12.00;8.33;;;;;17.76;55.40;102181.66;5081945;27;48105;-73